sensor_id;sensor_type;location;lat;lon;timestamp;P1;durP1;ratioP1;P2;durP2;ratioP2
67776;SDS011;54576;52.020;5.536;2024-02-15T00:02:14;14.35;;;7.65;;
67776;SDS011;54576;52.020;5.536;2024-02-15T00:04:40;21.60;;;7.68;;
67776;SDS011;54576;52.020;5.536;2024-02-15T00:07:05;20.27;;;7.00;;
67776;SDS011;54576;52.020;5.536;2024-02-15T00:09:31;15.45;;;6.22;;
67776;SDS011;54576;52.020;5.536;2024-02-15T00:11:57;17.25;;;6.00;;
67776;SDS011;54576;52.020;5.536;2024-02-15T00:14:24;16.10;;;6.13;;
67776;SDS011;54576;52.020;5.536;2024-02-15T00:16:51;29.33;;;7.22;;
67776;SDS011;54576;52.020;5.536;2024-02-15T00:19:16;17.02;;;7.35;;
67776;SDS011;54576;52.020;5.536;2024-02-15T00:21:45;29.73;;;7.80;;
67776;SDS011;54576;52.020;5.536;2024-02-15T00:24:11;17.20;;;7.40;;
67776;SDS011;54576;52.020;5.536;2024-02-15T00:26:38;17.42;;;7.45;;
67776;SDS011;54576;52.020;5.536;2024-02-15T00:29:04;16.70;;;7.75;;
67776;SDS011;54576;52.020;5.536;2024-02-15T00:31:30;16.27;;;7.03;;
67776;SDS011;54576;52.020;5.536;2024-02-15T00:33:55;14.38;;;6.90;;
67776;SDS011;54576;52.020;5.536;2024-02-15T00:36:21;10.73;;;6.13;;
67776;SDS011;54576;52.020;5.536;2024-02-15T00:38:48;16.10;;;6.90;;
67776;SDS011;54576;52.020;5.536;2024-02-15T00:41:13;13.32;;;6.53;;
67776;SDS011;54576;52.020;5.536;2024-02-15T00:43:39;12.27;;;7.00;;
67776;SDS011;54576;52.020;5.536;2024-02-15T00:46:04;20.05;;;7.65;;
67776;SDS011;54576;52.020;5.536;2024-02-15T00:48:30;23.38;;;9.82;;
67776;SDS011;54576;52.020;5.536;2024-02-15T00:50:56;19.77;;;10.98;;
67776;SDS011;54576;52.020;5.536;2024-02-15T00:53:23;26.25;;;12.52;;
67776;SDS011;54576;52.020;5.536;2024-02-15T00:55:48;23.70;;;13.05;;
67776;SDS011;54576;52.020;5.536;2024-02-15T00:58:14;24.65;;;13.60;;
67776;SDS011;54576;52.020;5.536;2024-02-15T01:00:39;26.75;;;16.27;;
67776;SDS011;54576;52.020;5.536;2024-02-15T01:03:05;36.08;;;17.38;;
67776;SDS011;54576;52.020;5.536;2024-02-15T01:05:30;25.48;;;15.23;;
67776;SDS011;54576;52.020;5.536;2024-02-15T01:07:56;30.00;;;17.70;;
67776;SDS011;54576;52.020;5.536;2024-02-15T01:10:22;32.85;;;17.95;;
67776;SDS011;54576;52.020;5.536;2024-02-15T01:12:51;28.98;;;17.25;;
67776;SDS011;54576;52.020;5.536;2024-02-15T01:15:17;32.05;;;17.95;;
67776;SDS011;54576;52.020;5.536;2024-02-15T01:17:44;31.38;;;18.77;;
67776;SDS011;54576;52.020;5.536;2024-02-15T01:20:10;34.28;;;17.50;;
67776;SDS011;54576;52.020;5.536;2024-02-15T01:22:36;28.33;;;17.13;;
67776;SDS011;54576;52.020;5.536;2024-02-15T01:25:02;30.73;;;18.55;;
67776;SDS011;54576;52.020;5.536;2024-02-15T01:27:28;38.85;;;18.77;;
67776;SDS011;54576;52.020;5.536;2024-02-15T01:29:55;31.38;;;17.75;;
67776;SDS011;54576;52.020;5.536;2024-02-15T01:32:21;32.88;;;18.23;;
67776;SDS011;54576;52.020;5.536;2024-02-15T01:34:47;31.85;;;17.98;;
67776;SDS011;54576;52.020;5.536;2024-02-15T01:37:13;34.15;;;18.02;;
67776;SDS011;54576;52.020;5.536;2024-02-15T01:39:38;32.80;;;17.55;;
67776;SDS011;54576;52.020;5.536;2024-02-15T01:42:05;28.42;;;17.38;;
67776;SDS011;54576;52.020;5.536;2024-02-15T01:44:31;34.78;;;17.23;;
67776;SDS011;54576;52.020;5.536;2024-02-15T01:46:56;37.50;;;17.73;;
67776;SDS011;54576;52.020;5.536;2024-02-15T01:49:23;28.70;;;16.23;;
67776;SDS011;54576;52.020;5.536;2024-02-15T01:51:50;32.10;;;16.30;;
67776;SDS011;54576;52.020;5.536;2024-02-15T01:54:18;31.75;;;15.68;;
67776;SDS011;54576;52.020;5.536;2024-02-15T01:56:44;26.40;;;14.90;;
67776;SDS011;54576;52.020;5.536;2024-02-15T01:59:10;26.02;;;15.70;;
67776;SDS011;54576;52.020;5.536;2024-02-15T02:01:39;24.40;;;13.85;;
67776;SDS011;54576;52.020;5.536;2024-02-15T02:04:06;33.70;;;14.35;;
67776;SDS011;54576;52.020;5.536;2024-02-15T02:06:32;30.65;;;15.10;;
67776;SDS011;54576;52.020;5.536;2024-02-15T02:08:59;18.98;;;13.80;;
67776;SDS011;54576;52.020;5.536;2024-02-15T02:11:24;29.42;;;14.48;;
67776;SDS011;54576;52.020;5.536;2024-02-15T02:13:51;22.35;;;13.23;;
67776;SDS011;54576;52.020;5.536;2024-02-15T02:16:27;22.27;;;13.25;;
67776;SDS011;54576;52.020;5.536;2024-02-15T02:18:56;22.05;;;13.70;;
67776;SDS011;54576;52.020;5.536;2024-02-15T02:23:52;31.08;;;11.82;;
67776;SDS011;54576;52.020;5.536;2024-02-15T02:26:19;29.20;;;12.48;;
67776;SDS011;54576;52.020;5.536;2024-02-15T02:28:46;28.40;;;11.77;;
67776;SDS011;54576;52.020;5.536;2024-02-15T02:31:12;24.67;;;11.43;;
67776;SDS011;54576;52.020;5.536;2024-02-15T02:33:39;21.65;;;11.40;;
67776;SDS011;54576;52.020;5.536;2024-02-15T02:36:05;24.20;;;11.45;;
67776;SDS011;54576;52.020;5.536;2024-02-15T02:38:37;20.80;;;11.48;;
67776;SDS011;54576;52.020;5.536;2024-02-15T02:41:08;17.85;;;9.68;;
67776;SDS011;54576;52.020;5.536;2024-02-15T02:43:33;21.75;;;11.02;;
67776;SDS011;54576;52.020;5.536;2024-02-15T02:45:59;27.13;;;11.98;;
67776;SDS011;54576;52.020;5.536;2024-02-15T02:48:25;30.02;;;10.77;;
67776;SDS011;54576;52.020;5.536;2024-02-15T02:50:53;23.23;;;10.88;;
67776;SDS011;54576;52.020;5.536;2024-02-15T02:53:19;38.22;;;12.05;;
67776;SDS011;54576;52.020;5.536;2024-02-15T02:55:45;26.25;;;10.90;;
67776;SDS011;54576;52.020;5.536;2024-02-15T02:58:10;22.88;;;10.43;;
67776;SDS011;54576;52.020;5.536;2024-02-15T03:00:37;26.92;;;11.52;;
67776;SDS011;54576;52.020;5.536;2024-02-15T03:03:04;21.85;;;10.02;;
67776;SDS011;54576;52.020;5.536;2024-02-15T03:05:30;36.78;;;11.30;;
67776;SDS011;54576;52.020;5.536;2024-02-15T03:07:56;26.40;;;10.60;;
67776;SDS011;54576;52.020;5.536;2024-02-15T03:10:22;27.52;;;10.43;;
67776;SDS011;54576;52.020;5.536;2024-02-15T03:12:49;26.95;;;10.98;;
67776;SDS011;54576;52.020;5.536;2024-02-15T03:15:15;32.03;;;10.68;;
67776;SDS011;54576;52.020;5.536;2024-02-15T03:17:42;26.60;;;10.68;;
67776;SDS011;54576;52.020;5.536;2024-02-15T03:20:09;28.27;;;10.55;;
67776;SDS011;54576;52.020;5.536;2024-02-15T03:22:37;29.63;;;10.38;;
67776;SDS011;54576;52.020;5.536;2024-02-15T03:25:06;23.52;;;10.05;;
67776;SDS011;54576;52.020;5.536;2024-02-15T03:27:35;33.17;;;10.95;;
67776;SDS011;54576;52.020;5.536;2024-02-15T03:30:02;22.73;;;9.23;;
67776;SDS011;54576;52.020;5.536;2024-02-15T03:32:29;19.92;;;9.15;;
67776;SDS011;54576;52.020;5.536;2024-02-15T03:34:55;28.35;;;10.38;;
67776;SDS011;54576;52.020;5.536;2024-02-15T03:37:20;35.25;;;9.00;;
67776;SDS011;54576;52.020;5.536;2024-02-15T03:39:46;31.20;;;9.40;;
67776;SDS011;54576;52.020;5.536;2024-02-15T03:42:12;24.77;;;8.48;;
67776;SDS011;54576;52.020;5.536;2024-02-15T03:44:41;32.47;;;9.88;;
67776;SDS011;54576;52.020;5.536;2024-02-15T03:47:07;26.40;;;8.60;;
67776;SDS011;54576;52.020;5.536;2024-02-15T03:49:33;26.67;;;8.40;;
67776;SDS011;54576;52.020;5.536;2024-02-15T03:51:59;28.52;;;8.13;;
67776;SDS011;54576;52.020;5.536;2024-02-15T03:54:25;26.50;;;8.80;;
67776;SDS011;54576;52.020;5.536;2024-02-15T03:56:51;19.27;;;8.05;;
67776;SDS011;54576;52.020;5.536;2024-02-15T03:59:18;24.67;;;7.97;;
67776;SDS011;54576;52.020;5.536;2024-02-15T04:01:46;25.35;;;8.43;;
67776;SDS011;54576;52.020;5.536;2024-02-15T04:04:12;18.50;;;8.25;;
67776;SDS011;54576;52.020;5.536;2024-02-15T04:06:38;18.98;;;7.45;;
67776;SDS011;54576;52.020;5.536;2024-02-15T04:09:05;24.45;;;8.48;;
67776;SDS011;54576;52.020;5.536;2024-02-15T04:11:32;22.70;;;7.20;;
67776;SDS011;54576;52.020;5.536;2024-02-15T04:13:58;23.35;;;7.03;;
67776;SDS011;54576;52.020;5.536;2024-02-15T04:16:24;19.33;;;7.40;;
67776;SDS011;54576;52.020;5.536;2024-02-15T04:18:50;19.65;;;6.78;;
67776;SDS011;54576;52.020;5.536;2024-02-15T04:21:16;25.10;;;7.32;;
67776;SDS011;54576;52.020;5.536;2024-02-15T04:23:44;26.35;;;7.28;;
67776;SDS011;54576;52.020;5.536;2024-02-15T04:26:10;25.73;;;7.05;;
67776;SDS011;54576;52.020;5.536;2024-02-15T04:28:38;23.50;;;6.68;;
67776;SDS011;54576;52.020;5.536;2024-02-15T04:31:07;22.83;;;7.03;;
67776;SDS011;54576;52.020;5.536;2024-02-15T04:33:34;24.15;;;6.13;;
67776;SDS011;54576;52.020;5.536;2024-02-15T04:35:59;11.80;;;6.10;;
67776;SDS011;54576;52.020;5.536;2024-02-15T04:38:31;22.92;;;6.32;;
67776;SDS011;54576;52.020;5.536;2024-02-15T04:40:59;14.52;;;5.93;;
67776;SDS011;54576;52.020;5.536;2024-02-15T04:43:25;21.50;;;5.88;;
67776;SDS011;54576;52.020;5.536;2024-02-15T04:45:51;17.63;;;5.75;;
67776;SDS011;54576;52.020;5.536;2024-02-15T04:48:16;22.63;;;6.22;;
67776;SDS011;54576;52.020;5.536;2024-02-15T04:50:44;24.73;;;5.68;;
67776;SDS011;54576;52.020;5.536;2024-02-15T04:53:10;27.30;;;6.90;;
67776;SDS011;54576;52.020;5.536;2024-02-15T04:55:36;17.60;;;5.95;;
67776;SDS011;54576;52.020;5.536;2024-02-15T04:58:02;23.05;;;5.75;;
67776;SDS011;54576;52.020;5.536;2024-02-15T05:00:29;15.95;;;4.90;;
67776;SDS011;54576;52.020;5.536;2024-02-15T05:02:55;25.40;;;5.57;;
67776;SDS011;54576;52.020;5.536;2024-02-15T05:05:20;20.13;;;5.05;;
67776;SDS011;54576;52.020;5.536;2024-02-15T05:07:48;18.08;;;5.68;;
67776;SDS011;54576;52.020;5.536;2024-02-15T05:10:16;19.27;;;5.87;;
67776;SDS011;54576;52.020;5.536;2024-02-15T05:12:42;15.57;;;5.38;;
67776;SDS011;54576;52.020;5.536;2024-02-15T05:15:08;21.73;;;5.25;;
67776;SDS011;54576;52.020;5.536;2024-02-15T05:17:37;19.48;;;5.70;;
67776;SDS011;54576;52.020;5.536;2024-02-15T05:20:05;26.20;;;5.83;;
67776;SDS011;54576;52.020;5.536;2024-02-15T05:22:38;27.65;;;6.10;;
67776;SDS011;54576;52.020;5.536;2024-02-15T05:25:05;22.90;;;5.78;;
67776;SDS011;54576;52.020;5.536;2024-02-15T05:27:32;16.38;;;5.85;;
67776;SDS011;54576;52.020;5.536;2024-02-15T05:29:58;16.80;;;5.15;;
67776;SDS011;54576;52.020;5.536;2024-02-15T05:32:24;23.98;;;5.82;;
67776;SDS011;54576;52.020;5.536;2024-02-15T05:34:51;15.95;;;5.60;;
67776;SDS011;54576;52.020;5.536;2024-02-15T05:37:19;17.98;;;5.60;;
67776;SDS011;54576;52.020;5.536;2024-02-15T05:39:45;19.90;;;5.75;;
67776;SDS011;54576;52.020;5.536;2024-02-15T05:42:11;17.27;;;5.20;;
67776;SDS011;54576;52.020;5.536;2024-02-15T05:44:36;17.98;;;5.38;;
67776;SDS011;54576;52.020;5.536;2024-02-15T05:47:02;19.67;;;5.70;;
67776;SDS011;54576;52.020;5.536;2024-02-15T05:49:28;23.85;;;5.63;;
67776;SDS011;54576;52.020;5.536;2024-02-15T05:51:54;18.10;;;5.72;;
67776;SDS011;54576;52.020;5.536;2024-02-15T05:54:19;15.52;;;5.47;;
67776;SDS011;54576;52.020;5.536;2024-02-15T05:56:47;18.25;;;6.00;;
67776;SDS011;54576;52.020;5.536;2024-02-15T05:59:16;13.15;;;5.13;;
67776;SDS011;54576;52.020;5.536;2024-02-15T06:01:45;17.60;;;5.43;;
67776;SDS011;54576;52.020;5.536;2024-02-15T06:04:13;16.15;;;6.00;;
67776;SDS011;54576;52.020;5.536;2024-02-15T06:06:39;22.77;;;6.68;;
67776;SDS011;54576;52.020;5.536;2024-02-15T06:09:05;18.75;;;5.75;;
67776;SDS011;54576;52.020;5.536;2024-02-15T06:11:30;22.42;;;6.10;;
67776;SDS011;54576;52.020;5.536;2024-02-15T06:13:56;19.80;;;6.05;;
67776;SDS011;54576;52.020;5.536;2024-02-15T06:16:21;19.85;;;5.53;;
67776;SDS011;54576;52.020;5.536;2024-02-15T06:18:47;23.42;;;6.20;;
67776;SDS011;54576;52.020;5.536;2024-02-15T06:21:15;21.40;;;5.63;;
67776;SDS011;54576;52.020;5.536;2024-02-15T06:23:42;21.67;;;5.95;;
67776;SDS011;54576;52.020;5.536;2024-02-15T06:26:08;25.27;;;5.88;;
67776;SDS011;54576;52.020;5.536;2024-02-15T06:28:33;15.77;;;5.28;;
67776;SDS011;54576;52.020;5.536;2024-02-15T06:31:18;22.27;;;5.63;;
67776;SDS011;54576;52.020;5.536;2024-02-15T06:34:02;23.63;;;6.40;;
67776;SDS011;54576;52.020;5.536;2024-02-15T06:36:47;17.48;;;5.13;;
67776;SDS011;54576;52.020;5.536;2024-02-15T06:39:32;18.75;;;6.35;;
67776;SDS011;54576;52.020;5.536;2024-02-15T06:42:08;13.63;;;5.30;;
67776;SDS011;54576;52.020;5.536;2024-02-15T06:44:34;13.95;;;5.65;;
67776;SDS011;54576;52.020;5.536;2024-02-15T06:47:00;18.45;;;6.47;;
67776;SDS011;54576;52.020;5.536;2024-02-15T06:49:26;18.60;;;5.95;;
67776;SDS011;54576;52.020;5.536;2024-02-15T06:51:52;13.77;;;5.50;;
67776;SDS011;54576;52.020;5.536;2024-02-15T06:54:17;15.93;;;6.03;;
67776;SDS011;54576;52.020;5.536;2024-02-15T06:56:43;11.35;;;5.68;;
67776;SDS011;54576;52.020;5.536;2024-02-15T06:59:13;14.07;;;6.05;;
67776;SDS011;54576;52.020;5.536;2024-02-15T07:01:40;15.88;;;5.90;;
67776;SDS011;54576;52.020;5.536;2024-02-15T07:04:07;16.00;;;6.13;;
67776;SDS011;54576;52.020;5.536;2024-02-15T07:06:35;17.80;;;5.97;;
67776;SDS011;54576;52.020;5.536;2024-02-15T07:09:07;19.17;;;5.85;;
67776;SDS011;54576;52.020;5.536;2024-02-15T07:11:33;14.80;;;5.22;;
67776;SDS011;54576;52.020;5.536;2024-02-15T07:16:29;12.63;;;5.05;;
67776;SDS011;54576;52.020;5.536;2024-02-15T07:18:55;16.83;;;5.22;;
67776;SDS011;54576;52.020;5.536;2024-02-15T07:21:21;13.68;;;4.93;;
67776;SDS011;54576;52.020;5.536;2024-02-15T07:23:52;10.60;;;5.03;;
67776;SDS011;54576;52.020;5.536;2024-02-15T07:26:19;12.40;;;4.55;;
67776;SDS011;54576;52.020;5.536;2024-02-15T07:28:45;12.30;;;4.85;;
67776;SDS011;54576;52.020;5.536;2024-02-15T07:31:13;17.98;;;4.85;;
67776;SDS011;54576;52.020;5.536;2024-02-15T07:33:39;18.30;;;4.70;;
67776;SDS011;54576;52.020;5.536;2024-02-15T07:36:08;12.70;;;4.45;;
67776;SDS011;54576;52.020;5.536;2024-02-15T07:38:33;13.32;;;4.43;;
67776;SDS011;54576;52.020;5.536;2024-02-15T07:40:59;13.57;;;4.75;;
67776;SDS011;54576;52.020;5.536;2024-02-15T07:43:25;11.90;;;3.95;;
67776;SDS011;54576;52.020;5.536;2024-02-15T07:45:51;11.95;;;3.97;;
67776;SDS011;54576;52.020;5.536;2024-02-15T07:48:17;15.05;;;4.57;;
67776;SDS011;54576;52.020;5.536;2024-02-15T07:50:43;7.63;;;4.07;;
67776;SDS011;54576;52.020;5.536;2024-02-15T07:53:09;11.52;;;4.25;;
67776;SDS011;54576;52.020;5.536;2024-02-15T07:55:36;12.63;;;4.40;;
67776;SDS011;54576;52.020;5.536;2024-02-15T07:58:03;8.93;;;3.97;;
67776;SDS011;54576;52.020;5.536;2024-02-15T08:00:29;11.40;;;4.80;;
67776;SDS011;54576;52.020;5.536;2024-02-15T08:02:55;10.07;;;4.32;;
67776;SDS011;54576;52.020;5.536;2024-02-15T08:05:22;15.82;;;6.10;;
67776;SDS011;54576;52.020;5.536;2024-02-15T08:07:48;8.60;;;4.20;;
67776;SDS011;54576;52.020;5.536;2024-02-15T08:10:14;9.23;;;4.93;;
67776;SDS011;54576;52.020;5.536;2024-02-15T08:15:06;11.73;;;3.95;;
67776;SDS011;54576;52.020;5.536;2024-02-15T08:17:36;21.88;;;4.10;;
67776;SDS011;54576;52.020;5.536;2024-02-15T08:22:46;7.05;;;3.63;;
67776;SDS011;54576;52.020;5.536;2024-02-15T08:25:12;8.18;;;3.13;;
67776;SDS011;54576;52.020;5.536;2024-02-15T08:27:40;5.95;;;3.30;;
67776;SDS011;54576;52.020;5.536;2024-02-15T08:30:09;5.10;;;3.17;;
67776;SDS011;54576;52.020;5.536;2024-02-15T08:32:36;5.05;;;3.20;;
67776;SDS011;54576;52.020;5.536;2024-02-15T08:35:06;6.15;;;2.90;;
67776;SDS011;54576;52.020;5.536;2024-02-15T08:37:33;5.25;;;2.90;;
67776;SDS011;54576;52.020;5.536;2024-02-15T08:40:03;5.95;;;3.33;;
67776;SDS011;54576;52.020;5.536;2024-02-15T08:42:40;2.67;;;2.20;;
67776;SDS011;54576;52.020;5.536;2024-02-15T08:45:06;3.47;;;2.42;;
67776;SDS011;54576;52.020;5.536;2024-02-15T08:50:05;3.47;;;2.40;;
67776;SDS011;54576;52.020;5.536;2024-02-15T08:52:34;3.72;;;2.08;;
67776;SDS011;54576;52.020;5.536;2024-02-15T08:55:02;3.25;;;2.30;;
67776;SDS011;54576;52.020;5.536;2024-02-15T08:57:27;5.22;;;2.15;;
67776;SDS011;54576;52.020;5.536;2024-02-15T08:59:53;3.58;;;1.95;;
67776;SDS011;54576;52.020;5.536;2024-02-15T09:02:19;5.70;;;2.40;;
67776;SDS011;54576;52.020;5.536;2024-02-15T09:04:45;4.63;;;2.30;;
67776;SDS011;54576;52.020;5.536;2024-02-15T09:07:10;9.63;;;1.88;;
67776;SDS011;54576;52.020;5.536;2024-02-15T09:09:36;2.70;;;1.80;;
67776;SDS011;54576;52.020;5.536;2024-02-15T09:12:02;3.95;;;2.15;;
67776;SDS011;54576;52.020;5.536;2024-02-15T09:14:31;2.08;;;1.95;;
67776;SDS011;54576;52.020;5.536;2024-02-15T09:16:57;5.75;;;2.28;;
67776;SDS011;54576;52.020;5.536;2024-02-15T09:19:23;5.32;;;2.63;;
67776;SDS011;54576;52.020;5.536;2024-02-15T09:21:49;4.22;;;2.53;;
67776;SDS011;54576;52.020;5.536;2024-02-15T09:24:14;5.40;;;2.42;;
67776;SDS011;54576;52.020;5.536;2024-02-15T09:26:41;4.88;;;2.90;;
67776;SDS011;54576;52.020;5.536;2024-02-15T09:29:07;5.97;;;2.90;;
67776;SDS011;54576;52.020;5.536;2024-02-15T09:31:33;9.13;;;2.80;;
67776;SDS011;54576;52.020;5.536;2024-02-15T09:34:00;10.63;;;3.30;;
67776;SDS011;54576;52.020;5.536;2024-02-15T09:36:26;11.45;;;3.15;;
67776;SDS011;54576;52.020;5.536;2024-02-15T09:38:58;9.80;;;3.40;;
67776;SDS011;54576;52.020;5.536;2024-02-15T09:41:23;12.57;;;3.80;;
67776;SDS011;54576;52.020;5.536;2024-02-15T09:43:50;10.88;;;3.90;;
67776;SDS011;54576;52.020;5.536;2024-02-15T09:46:17;11.30;;;3.15;;
67776;SDS011;54576;52.020;5.536;2024-02-15T09:48:43;12.07;;;3.67;;
67776;SDS011;54576;52.020;5.536;2024-02-15T09:51:10;11.07;;;3.50;;
67776;SDS011;54576;52.020;5.536;2024-02-15T09:53:37;9.75;;;3.45;;
67776;SDS011;54576;52.020;5.536;2024-02-15T09:56:03;8.35;;;3.67;;
67776;SDS011;54576;52.020;5.536;2024-02-15T09:58:29;14.95;;;3.38;;
67776;SDS011;54576;52.020;5.536;2024-02-15T10:03:27;7.55;;;2.80;;
67776;SDS011;54576;52.020;5.536;2024-02-15T10:08:22;7.38;;;2.75;;
67776;SDS011;54576;52.020;5.536;2024-02-15T10:11:04;10.88;;;3.03;;
67776;SDS011;54576;52.020;5.536;2024-02-15T10:13:32;8.43;;;2.88;;
67776;SDS011;54576;52.020;5.536;2024-02-15T10:15:58;9.77;;;2.85;;
67776;SDS011;54576;52.020;5.536;2024-02-15T10:18:24;12.80;;;3.30;;
67776;SDS011;54576;52.020;5.536;2024-02-15T10:20:57;11.23;;;3.38;;
67776;SDS011;54576;52.020;5.536;2024-02-15T10:23:23;6.80;;;2.92;;
67776;SDS011;54576;52.020;5.536;2024-02-15T10:25:48;10.82;;;2.92;;
67776;SDS011;54576;52.020;5.536;2024-02-15T10:28:14;9.55;;;2.78;;
67776;SDS011;54576;52.020;5.536;2024-02-15T10:30:48;13.18;;;3.10;;
67776;SDS011;54576;52.020;5.536;2024-02-15T10:33:28;6.63;;;2.60;;
67776;SDS011;54576;52.020;5.536;2024-02-15T10:36:09;12.93;;;3.20;;
67776;SDS011;54576;52.020;5.536;2024-02-15T10:38:36;7.25;;;2.80;;
67776;SDS011;54576;52.020;5.536;2024-02-15T10:41:03;11.98;;;2.88;;
67776;SDS011;54576;52.020;5.536;2024-02-15T10:43:35;11.13;;;2.97;;
67776;SDS011;54576;52.020;5.536;2024-02-15T10:46:04;8.65;;;2.92;;
67776;SDS011;54576;52.020;5.536;2024-02-15T10:48:34;8.52;;;2.78;;
67776;SDS011;54576;52.020;5.536;2024-02-15T10:51:00;7.15;;;3.30;;
67776;SDS011;54576;52.020;5.536;2024-02-15T10:53:27;10.52;;;2.90;;
67776;SDS011;54576;52.020;5.536;2024-02-15T10:56:12;12.63;;;2.90;;
67776;SDS011;54576;52.020;5.536;2024-02-15T10:58:46;11.75;;;3.42;;
67776;SDS011;54576;52.020;5.536;2024-02-15T11:01:16;12.48;;;3.10;;
67776;SDS011;54576;52.020;5.536;2024-02-15T11:03:54;8.95;;;3.08;;
67776;SDS011;54576;52.020;5.536;2024-02-15T11:06:26;12.80;;;3.35;;
67776;SDS011;54576;52.020;5.536;2024-02-15T11:08:52;8.93;;;2.63;;
67776;SDS011;54576;52.020;5.536;2024-02-15T11:11:18;12.88;;;3.05;;
67776;SDS011;54576;52.020;5.536;2024-02-15T11:13:45;9.75;;;2.80;;
67776;SDS011;54576;52.020;5.536;2024-02-15T11:19:04;7.65;;;2.83;;
67776;SDS011;54576;52.020;5.536;2024-02-15T11:24:28;12.57;;;3.20;;
67776;SDS011;54576;52.020;5.536;2024-02-15T11:27:00;8.27;;;2.90;;
67776;SDS011;54576;52.020;5.536;2024-02-15T11:37:50;10.25;;;3.38;;
67776;SDS011;54576;52.020;5.536;2024-02-15T11:42:54;4.75;;;2.63;;
67776;SDS011;54576;52.020;5.536;2024-02-15T11:45:23;8.95;;;3.05;;
67776;SDS011;54576;52.020;5.536;2024-02-15T11:47:51;8.77;;;2.90;;
67776;SDS011;54576;52.020;5.536;2024-02-15T11:50:19;13.77;;;3.28;;
67776;SDS011;54576;52.020;5.536;2024-02-15T11:52:45;7.70;;;3.17;;
67776;SDS011;54576;52.020;5.536;2024-02-15T11:55:13;10.52;;;3.58;;
67776;SDS011;54576;52.020;5.536;2024-02-15T11:57:40;16.20;;;3.67;;
67776;SDS011;54576;52.020;5.536;2024-02-15T12:00:25;10.40;;;3.08;;
67776;SDS011;54576;52.020;5.536;2024-02-15T12:03:10;12.52;;;2.78;;
67776;SDS011;54576;52.020;5.536;2024-02-15T12:05:57;8.30;;;2.70;;
67776;SDS011;54576;52.020;5.536;2024-02-15T12:08:45;7.53;;;2.97;;
67776;SDS011;54576;52.020;5.536;2024-02-15T12:11:32;12.20;;;2.90;;
67776;SDS011;54576;52.020;5.536;2024-02-15T12:14:17;9.43;;;2.83;;
67776;SDS011;54576;52.020;5.536;2024-02-15T12:17:02;10.85;;;2.80;;
67776;SDS011;54576;52.020;5.536;2024-02-15T12:19:47;8.50;;;2.88;;
67776;SDS011;54576;52.020;5.536;2024-02-15T12:22:19;7.15;;;2.50;;
67776;SDS011;54576;52.020;5.536;2024-02-15T12:24:56;5.93;;;2.60;;
67776;SDS011;54576;52.020;5.536;2024-02-15T12:27:25;7.43;;;3.05;;
67776;SDS011;54576;52.020;5.536;2024-02-15T12:29:58;7.03;;;2.33;;
67776;SDS011;54576;52.020;5.536;2024-02-15T12:32:27;9.38;;;2.60;;
67776;SDS011;54576;52.020;5.536;2024-02-15T12:34:53;8.00;;;2.50;;
67776;SDS011;54576;52.020;5.536;2024-02-15T12:37:42;10.55;;;2.58;;
67776;SDS011;54576;52.020;5.536;2024-02-15T12:40:15;7.75;;;2.17;;
67776;SDS011;54576;52.020;5.536;2024-02-15T12:42:45;11.00;;;2.55;;
67776;SDS011;54576;52.020;5.536;2024-02-15T12:45:18;8.80;;;2.88;;
67776;SDS011;54576;52.020;5.536;2024-02-15T12:50:15;8.38;;;2.83;;
67776;SDS011;54576;52.020;5.536;2024-02-15T12:52:41;4.50;;;1.98;;
67776;SDS011;54576;52.020;5.536;2024-02-15T12:55:18;5.03;;;2.20;;
67776;SDS011;54576;52.020;5.536;2024-02-15T12:57:47;10.40;;;2.70;;
67776;SDS011;54576;52.020;5.536;2024-02-15T13:00:17;5.65;;;2.40;;
67776;SDS011;54576;52.020;5.536;2024-02-15T13:02:48;5.13;;;2.50;;
67776;SDS011;54576;52.020;5.536;2024-02-15T13:05:15;5.18;;;2.13;;
67776;SDS011;54576;52.020;5.536;2024-02-15T13:07:43;8.90;;;2.63;;
67776;SDS011;54576;52.020;5.536;2024-02-15T13:10:12;11.70;;;2.28;;
67776;SDS011;54576;52.020;5.536;2024-02-15T13:12:39;7.68;;;2.50;;
67776;SDS011;54576;52.020;5.536;2024-02-15T13:15:10;9.20;;;2.90;;
67776;SDS011;54576;52.020;5.536;2024-02-15T13:17:40;6.50;;;2.50;;
67776;SDS011;54576;52.020;5.536;2024-02-15T13:20:13;11.00;;;2.97;;
67776;SDS011;54576;52.020;5.536;2024-02-15T13:22:40;9.02;;;3.00;;
67776;SDS011;54576;52.020;5.536;2024-02-15T13:25:08;7.35;;;2.45;;
67776;SDS011;54576;52.020;5.536;2024-02-15T13:27:35;9.57;;;2.63;;
67776;SDS011;54576;52.020;5.536;2024-02-15T13:30:03;8.80;;;2.85;;
67776;SDS011;54576;52.020;5.536;2024-02-15T13:32:37;9.05;;;3.10;;
67776;SDS011;54576;52.020;5.536;2024-02-15T13:35:06;12.27;;;2.45;;
67776;SDS011;54576;52.020;5.536;2024-02-15T13:37:41;12.68;;;2.92;;
67776;SDS011;54576;52.020;5.536;2024-02-15T13:40:17;8.75;;;2.55;;
67776;SDS011;54576;52.020;5.536;2024-02-15T13:42:45;10.25;;;2.67;;
67776;SDS011;54576;52.020;5.536;2024-02-15T13:45:18;6.95;;;2.60;;
67776;SDS011;54576;52.020;5.536;2024-02-15T13:47:55;10.82;;;2.30;;
67776;SDS011;54576;52.020;5.536;2024-02-15T13:50:23;5.63;;;2.27;;
67776;SDS011;54576;52.020;5.536;2024-02-15T13:52:49;13.57;;;3.15;;
67776;SDS011;54576;52.020;5.536;2024-02-15T13:55:18;7.82;;;2.50;;
67776;SDS011;54576;52.020;5.536;2024-02-15T13:57:45;6.50;;;2.70;;
67776;SDS011;54576;52.020;5.536;2024-02-15T14:00:13;5.72;;;2.72;;
67776;SDS011;54576;52.020;5.536;2024-02-15T14:02:52;7.38;;;2.67;;
67776;SDS011;54576;52.020;5.536;2024-02-15T14:05:19;16.13;;;2.70;;
67776;SDS011;54576;52.020;5.536;2024-02-15T14:07:54;8.55;;;3.55;;
67776;SDS011;54576;52.020;5.536;2024-02-15T14:10:21;7.10;;;2.67;;
67776;SDS011;54576;52.020;5.536;2024-02-15T14:12:48;9.40;;;2.80;;
67776;SDS011;54576;52.020;5.536;2024-02-15T14:15:15;8.68;;;2.83;;
67776;SDS011;54576;52.020;5.536;2024-02-15T14:17:42;6.22;;;2.20;;
67776;SDS011;54576;52.020;5.536;2024-02-15T14:20:09;8.77;;;2.33;;
67776;SDS011;54576;52.020;5.536;2024-02-15T14:22:38;10.40;;;2.88;;
67776;SDS011;54576;52.020;5.536;2024-02-15T14:25:05;7.97;;;2.50;;
67776;SDS011;54576;52.020;5.536;2024-02-15T14:27:31;9.55;;;2.67;;
67776;SDS011;54576;52.020;5.536;2024-02-15T14:29:57;4.18;;;2.20;;
67776;SDS011;54576;52.020;5.536;2024-02-15T14:32:41;11.70;;;4.63;;
67776;SDS011;54576;52.020;5.536;2024-02-15T14:35:26;4.97;;;2.08;;
67776;SDS011;54576;52.020;5.536;2024-02-15T14:37:53;13.70;;;2.60;;
67776;SDS011;54576;52.020;5.536;2024-02-15T14:40:21;7.35;;;2.08;;
67776;SDS011;54576;52.020;5.536;2024-02-15T14:42:46;11.07;;;2.80;;
67776;SDS011;54576;52.020;5.536;2024-02-15T14:45:12;8.20;;;2.42;;
67776;SDS011;54576;52.020;5.536;2024-02-15T14:47:37;8.50;;;2.67;;
67776;SDS011;54576;52.020;5.536;2024-02-15T14:50:03;6.53;;;2.17;;
67776;SDS011;54576;52.020;5.536;2024-02-15T14:52:33;9.52;;;2.55;;
67776;SDS011;54576;52.020;5.536;2024-02-15T14:57:30;6.40;;;2.30;;
67776;SDS011;54576;52.020;5.536;2024-02-15T14:59:58;6.63;;;2.30;;
67776;SDS011;54576;52.020;5.536;2024-02-15T15:02:24;9.90;;;2.47;;
67776;SDS011;54576;52.020;5.536;2024-02-15T15:04:49;16.13;;;2.30;;
67776;SDS011;54576;52.020;5.536;2024-02-15T15:07:33;6.72;;;2.30;;
67776;SDS011;54576;52.020;5.536;2024-02-15T15:10:17;9.43;;;2.50;;
67776;SDS011;54576;52.020;5.536;2024-02-15T15:13:02;8.95;;;2.45;;
67776;SDS011;54576;52.020;5.536;2024-02-15T15:15:28;8.07;;;2.45;;
67776;SDS011;54576;52.020;5.536;2024-02-15T15:17:53;8.98;;;2.38;;
67776;SDS011;54576;52.020;5.536;2024-02-15T15:20:23;7.03;;;2.45;;
67776;SDS011;54576;52.020;5.536;2024-02-15T15:22:51;6.40;;;2.83;;